sensor_id;sensor_type;location;lat;lon;timestamp;pressure;altitude;pressure_sealevel;temperature;humidity
36386;BME280;24125;47.482;8.770;2023-02-14T00:01:33;98071.75;;;6.56;64.15
36386;BME280;24125;47.482;8.770;2023-02-14T00:04:06;98069.91;;;6.57;64.53
36386;BME280;24125;47.482;8.770;2023-02-14T00:06:41;98073.34;;;6.57;64.41
36386;BME280;24125;47.482;8.770;2023-02-14T00:09:15;98075.44;;;6.55;64.21
36386;BME280;24125;47.482;8.770;2023-02-14T00:11:49;98079.41;;;6.53;64.45
36386;BME280;24125;47.482;8.770;2023-02-14T00:14:22;98075.94;;;6.52;64.17
36386;BME280;24125;47.482;8.770;2023-02-14T00:17:12;98078.84;;;6.51;64.10
36386;BME280;24125;47.482;8.770;2023-02-14T00:19:45;98071.41;;;6.48;64.15
36386;BME280;24125;47.482;8.770;2023-02-14T00:22:20;98081.75;;;6.49;64.10
36386;BME280;24125;47.482;8.770;2023-02-14T00:24:53;98082.81;;;6.48;64.21
36386;BME280;24125;47.482;8.770;2023-02-14T00:27:26;98076.72;;;6.48;64.39
36386;BME280;24125;47.482;8.770;2023-02-14T00:29:59;98082.03;;;6.48;64.00
36386;BME280;24125;47.482;8.770;2023-02-14T00:32:35;98087.56;;;6.46;64.28
36386;BME280;24125;47.482;8.770;2023-02-14T00:35:09;98083.31;;;6.45;64.17
36386;BME280;24125;47.482;8.770;2023-02-14T00:37:44;98087.31;;;6.48;63.69
36386;BME280;24125;47.482;8.770;2023-02-14T00:40:17;98079.06;;;6.44;64.37
36386;BME280;24125;47.482;8.770;2023-02-14T00:42:50;98087.00;;;6.44;63.87
36386;BME280;24125;47.482;8.770;2023-02-14T00:45:23;98083.81;;;6.42;63.92
36386;BME280;24125;47.482;8.770;2023-02-14T00:47:56;98084.84;;;6.41;64.00
36386;BME280;24125;47.482;8.770;2023-02-14T00:50:29;98085.13;;;6.39;64.20
36386;BME280;24125;47.482;8.770;2023-02-14T00:53:03;98081.69;;;6.39;64.36
36386;BME280;24125;47.482;8.770;2023-02-14T00:55:36;98075.00;;;6.36;63.84
36386;BME280;24125;47.482;8.770;2023-02-14T00:58:09;98082.97;;;6.36;64.47
36386;BME280;24125;47.482;8.770;2023-02-14T01:00:42;98078.72;;;6.35;64.28
36386;BME280;24125;47.482;8.770;2023-02-14T01:03:15;98074.69;;;6.33;64.25
36386;BME280;24125;47.482;8.770;2023-02-14T01:05:49;98077.91;;;6.35;64.22
36386;BME280;24125;47.482;8.770;2023-02-14T01:08:24;98081.63;;;6.34;64.21
36386;BME280;24125;47.482;8.770;2023-02-14T01:11:06;98073.91;;;6.32;64.34
36386;BME280;24125;47.482;8.770;2023-02-14T01:13:39;98074.94;;;6.31;64.52
36386;BME280;24125;47.482;8.770;2023-02-14T01:16:14;98074.94;;;6.31;63.87
36386;BME280;24125;47.482;8.770;2023-02-14T01:18:48;98077.88;;;6.30;63.56
36386;BME280;24125;47.482;8.770;2023-02-14T01:21:22;98069.66;;;6.31;63.63
36386;BME280;24125;47.482;8.770;2023-02-14T01:23:59;98069.91;;;6.30;64.30
36386;BME280;24125;47.482;8.770;2023-02-14T01:26:33;98070.16;;;6.28;64.00
36386;BME280;24125;47.482;8.770;2023-02-14T01:29:06;98066.72;;;6.28;64.16
36386;BME280;24125;47.482;8.770;2023-02-14T01:31:39;98073.88;;;6.27;63.57
36386;BME280;24125;47.482;8.770;2023-02-14T01:34:12;98074.91;;;6.26;63.67
36386;BME280;24125;47.482;8.770;2023-02-14T01:36:45;98081.81;;;6.27;63.66
36386;BME280;24125;47.482;8.770;2023-02-14T01:39:20;98060.28;;;6.24;63.90
36386;BME280;24125;47.482;8.770;2023-02-14T01:41:53;98058.97;;;6.21;63.63
36386;BME280;24125;47.482;8.770;2023-02-14T01:44:56;98060.56;;;6.22;64.12
36386;BME280;24125;47.482;8.770;2023-02-14T01:47:31;98051.25;;;6.20;63.54
36386;BME280;24125;47.482;8.770;2023-02-14T01:50:08;98056.31;;;6.21;63.50
36386;BME280;24125;47.482;8.770;2023-02-14T01:52:44;98053.34;;;6.18;63.62
36386;BME280;24125;47.482;8.770;2023-02-14T01:55:24;98051.75;;;6.17;63.83
36386;BME280;24125;47.482;8.770;2023-02-14T01:58:01;98056.25;;;6.16;64.01
36386;BME280;24125;47.482;8.770;2023-02-14T02:00:36;98059.94;;;6.15;63.46
36386;BME280;24125;47.482;8.770;2023-02-14T02:03:31;98047.22;;;6.12;63.09
36386;BME280;24125;47.482;8.770;2023-02-14T02:06:10;98050.66;;;6.13;63.29
36386;BME280;24125;47.482;8.770;2023-02-14T02:08:51;98046.66;;;6.10;63.42
36386;BME280;24125;47.482;8.770;2023-02-14T02:11:30;98047.94;;;6.07;63.65
36386;BME280;24125;47.482;8.770;2023-02-14T02:14:04;98046.63;;;6.05;63.38
36386;BME280;24125;47.482;8.770;2023-02-14T02:16:50;98046.84;;;6.03;63.78
36386;BME280;24125;47.482;8.770;2023-02-14T02:19:50;98042.03;;;6.00;63.42
36386;BME280;24125;47.482;8.770;2023-02-14T02:22:55;98042.84;;;6.01;63.38
36386;BME280;24125;47.482;8.770;2023-02-14T02:25:50;98037.00;;;5.99;63.40
36386;BME280;24125;47.482;8.770;2023-02-14T02:28:49;98039.88;;;5.97;63.31
36386;BME280;24125;47.482;8.770;2023-02-14T02:31:41;98041.22;;;5.95;63.09
36386;BME280;24125;47.482;8.770;2023-02-14T02:37:34;98048.84;;;5.91;63.57
36386;BME280;24125;47.482;8.770;2023-02-14T02:40:27;98046.19;;;5.91;63.21
36386;BME280;24125;47.482;8.770;2023-02-14T02:43:06;98036.06;;;5.88;63.20
36386;BME280;24125;47.482;8.770;2023-02-14T02:45:46;98033.66;;;5.87;63.33
36386;BME280;24125;47.482;8.770;2023-02-14T02:48:41;98023.00;;;5.82;63.38
36386;BME280;24125;47.482;8.770;2023-02-14T02:51:20;98029.09;;;5.82;63.69
36386;BME280;24125;47.482;8.770;2023-02-14T02:54:19;98024.84;;;5.81;63.51
36386;BME280;24125;47.482;8.770;2023-02-14T02:56:58;98028.00;;;5.78;63.45
36386;BME280;24125;47.482;8.770;2023-02-14T02:59:35;98022.44;;;5.80;63.62
36386;BME280;24125;47.482;8.770;2023-02-14T03:02:13;98021.09;;;5.77;63.36
36386;BME280;24125;47.482;8.770;2023-02-14T03:04:50;98021.91;;;5.78;63.79
36386;BME280;24125;47.482;8.770;2023-02-14T03:07:32;98023.50;;;5.79;63.92
36386;BME280;24125;47.482;8.770;2023-02-14T03:10:14;98019.50;;;5.76;63.59
36386;BME280;24125;47.482;8.770;2023-02-14T03:13:10;98019.25;;;5.78;63.88
36386;BME280;24125;47.482;8.770;2023-02-14T03:15:59;98020.88;;;5.79;63.75
36386;BME280;24125;47.482;8.770;2023-02-14T03:18:44;98023.50;;;5.79;64.14
36386;BME280;24125;47.482;8.770;2023-02-14T03:21:43;98022.44;;;5.80;64.01
36386;BME280;24125;47.482;8.770;2023-02-14T03:24:24;98020.59;;;5.80;64.43
36386;BME280;24125;47.482;8.770;2023-02-14T03:27:05;98016.09;;;5.81;64.45
36386;BME280;24125;47.482;8.770;2023-02-14T03:29:44;98020.59;;;5.80;64.27
36386;BME280;24125;47.482;8.770;2023-02-14T03:32:28;98024.03;;;5.81;64.47
36386;BME280;24125;47.482;8.770;2023-02-14T03:35:11;98023.00;;;5.82;64.35
36386;BME280;24125;47.482;8.770;2023-02-14T03:37:49;98021.38;;;5.81;64.51
36386;BME280;24125;47.482;8.770;2023-02-14T03:40:26;98018.50;;;5.82;64.21
36386;BME280;24125;47.482;8.770;2023-02-14T03:43:04;98028.06;;;5.83;64.61
36386;BME280;24125;47.482;8.770;2023-02-14T03:45:44;98022.75;;;5.83;64.21
36386;BME280;24125;47.482;8.770;2023-02-14T03:48:20;98022.75;;;5.83;64.53
36386;BME280;24125;47.482;8.770;2023-02-14T03:50:56;98015.59;;;5.84;64.23
36386;BME280;24125;47.482;8.770;2023-02-14T03:53:34;98012.94;;;5.84;64.27
36386;BME280;24125;47.482;8.770;2023-02-14T03:56:12;98020.09;;;5.83;63.88
36386;BME280;24125;47.482;8.770;2023-02-14T03:58:50;98027.00;;;5.84;64.08
36386;BME280;24125;47.482;8.770;2023-02-14T04:01:30;98028.28;;;5.82;64.00
36386;BME280;24125;47.482;8.770;2023-02-14T04:04:05;98021.66;;;5.79;63.57
36386;BME280;24125;47.482;8.770;2023-02-14T04:06:39;98018.22;;;5.79;63.87
36386;BME280;24125;47.482;8.770;2023-02-14T04:09:12;98019.00;;;5.79;63.80
36386;BME280;24125;47.482;8.770;2023-02-14T04:11:46;98026.16;;;5.79;63.86
36386;BME280;24125;47.482;8.770;2023-02-14T04:14:22;98027.75;;;5.80;64.13
36386;BME280;24125;47.482;8.770;2023-02-14T04:16:57;98030.91;;;5.77;64.13
36386;BME280;24125;47.482;8.770;2023-02-14T04:19:47;98033.00;;;5.75;64.03
36386;BME280;24125;47.482;8.770;2023-02-14T04:22:20;98035.88;;;5.73;64.13
36386;BME280;24125;47.482;8.770;2023-02-14T04:24:53;98033.25;;;5.73;64.15
36386;BME280;24125;47.482;8.770;2023-02-14T04:27:26;98025.53;;;5.72;63.76
36386;BME280;24125;47.482;8.770;2023-02-14T04:30:00;98027.94;;;5.73;63.80
36386;BME280;24125;47.482;8.770;2023-02-14T04:32:33;98028.19;;;5.72;63.89
36386;BME280;24125;47.482;8.770;2023-02-14T04:35:06;98031.63;;;5.72;63.91
36386;BME280;24125;47.482;8.770;2023-02-14T04:37:40;98025.53;;;5.72;63.76
36386;BME280;24125;47.482;8.770;2023-02-14T04:40:13;98034.56;;;5.71;63.49
36386;BME280;24125;47.482;8.770;2023-02-14T04:42:47;98029.25;;;5.71;63.38
36386;BME280;24125;47.482;8.770;2023-02-14T04:45:22;98025.81;;;5.70;63.53
36386;BME280;24125;47.482;8.770;2023-02-14T04:47:55;98026.53;;;5.65;63.36
36386;BME280;24125;47.482;8.770;2023-02-14T04:50:28;98021.47;;;5.64;63.30
36386;BME280;24125;47.482;8.770;2023-02-14T04:53:00;98032.06;;;5.64;63.39
36386;BME280;24125;47.482;8.770;2023-02-14T04:55:33;98032.59;;;5.61;63.53
36386;BME280;24125;47.482;8.770;2023-02-14T04:58:06;98026.97;;;5.57;63.08
36386;BME280;24125;47.482;8.770;2023-02-14T05:00:40;98029.06;;;5.55;63.58
36386;BME280;24125;47.482;8.770;2023-02-14T05:03:14;98028.22;;;5.50;63.51
36386;BME280;24125;47.482;8.770;2023-02-14T05:05:46;98027.91;;;5.46;63.24
36386;BME280;24125;47.482;8.770;2023-02-14T05:08:19;98018.84;;;5.42;64.02
36386;BME280;24125;47.482;8.770;2023-02-14T05:10:53;98019.09;;;5.41;63.65
36386;BME280;24125;47.482;8.770;2023-02-14T05:13:26;98025.69;;;5.38;63.86
36386;BME280;24125;47.482;8.770;2023-02-14T05:16:02;98025.69;;;5.38;63.85
36386;BME280;24125;47.482;8.770;2023-02-14T05:18:35;98030.44;;;5.36;63.90
36386;BME280;24125;47.482;8.770;2023-02-14T05:21:08;98025.16;;;5.36;63.84
36386;BME280;24125;47.482;8.770;2023-02-14T05:23:42;98033.88;;;5.37;64.27
36386;BME280;24125;47.482;8.770;2023-02-14T05:26:15;98030.19;;;5.38;64.31
36386;BME280;24125;47.482;8.770;2023-02-14T05:28:48;98030.75;;;5.40;64.43
36386;BME280;24125;47.482;8.770;2023-02-14T05:31:22;98027.59;;;5.43;64.42
36386;BME280;24125;47.482;8.770;2023-02-14T05:33:55;98029.44;;;5.42;64.22
36386;BME280;24125;47.482;8.770;2023-02-14T05:36:28;98022.88;;;5.45;63.99
36386;BME280;24125;47.482;8.770;2023-02-14T05:39:01;98027.09;;;5.46;63.98
36386;BME280;24125;47.482;8.770;2023-02-14T05:41:34;98018.63;;;5.44;63.78
36386;BME280;24125;47.482;8.770;2023-02-14T05:44:07;98035.31;;;5.44;63.95
36386;BME280;24125;47.482;8.770;2023-02-14T05:46:41;98032.09;;;5.42;63.96
36386;BME280;24125;47.482;8.770;2023-02-14T05:49:14;98024.16;;;5.42;63.97
36386;BME280;24125;47.482;8.770;2023-02-14T05:51:47;98032.91;;;5.43;64.14
36386;BME280;24125;47.482;8.770;2023-02-14T05:54:20;98030.25;;;5.43;64.27
36386;BME280;24125;47.482;8.770;2023-02-14T05:56:53;98041.66;;;5.43;63.88
36386;BME280;24125;47.482;8.770;2023-02-14T05:59:26;98027.59;;;5.43;64.17
36386;BME280;24125;47.482;8.770;2023-02-14T06:02:00;98034.25;;;5.45;64.15
36386;BME280;24125;47.482;8.770;2023-02-14T06:04:33;98022.06;;;5.44;63.92
36386;BME280;24125;47.482;8.770;2023-02-14T06:07:07;98028.16;;;5.45;64.06
36386;BME280;24125;47.482;8.770;2023-02-14T06:09:40;98028.94;;;5.45;63.86
36386;BME280;24125;47.482;8.770;2023-02-14T06:12:12;98032.16;;;5.47;63.99
36386;BME280;24125;47.482;8.770;2023-02-14T06:14:45;98037.69;;;5.46;63.81
36386;BME280;24125;47.482;8.770;2023-02-14T06:17:20;98039.28;;;5.47;63.94
36386;BME280;24125;47.482;8.770;2023-02-14T06:19:53;98038.25;;;5.48;63.97
36386;BME280;24125;47.482;8.770;2023-02-14T06:22:25;98047.00;;;5.48;63.94
36386;BME280;24125;47.482;8.770;2023-02-14T06:25:01;98047.00;;;5.48;63.31
36386;BME280;24125;47.482;8.770;2023-02-14T06:27:34;98048.03;;;5.47;63.86
36386;BME280;24125;47.482;8.770;2023-02-14T06:30:08;98056.00;;;5.47;63.82
36386;BME280;24125;47.482;8.770;2023-02-14T06:32:43;98056.78;;;5.48;63.93
36386;BME280;24125;47.482;8.770;2023-02-14T06:35:17;98054.38;;;5.46;63.53
36386;BME280;24125;47.482;8.770;2023-02-14T06:37:50;98056.00;;;5.47;63.34
36386;BME280;24125;47.482;8.770;2023-02-14T06:40:23;98059.97;;;5.45;63.31
36386;BME280;24125;47.482;8.770;2023-02-14T06:42:56;98062.84;;;5.43;63.39
36386;BME280;24125;47.482;8.770;2023-02-14T06:45:29;98066.53;;;5.42;63.53
36386;BME280;24125;47.482;8.770;2023-02-14T06:48:03;98074.50;;;5.42;63.63
36386;BME280;24125;47.482;8.770;2023-02-14T06:50:36;98068.88;;;5.39;63.69
36386;BME280;24125;47.482;8.770;2023-02-14T06:53:09;98065.41;;;5.38;63.60
36386;BME280;24125;47.482;8.770;2023-02-14T06:55:42;98070.72;;;5.38;63.32
36386;BME280;24125;47.482;8.770;2023-02-14T06:58:15;98069.09;;;5.37;63.51
36386;BME280;24125;47.482;8.770;2023-02-14T07:00:48;98080.25;;;5.39;63.56
36386;BME280;24125;47.482;8.770;2023-02-14T07:03:22;98082.91;;;5.39;63.57
36386;BME280;24125;47.482;8.770;2023-02-14T07:05:56;98080.25;;;5.39;63.45
36386;BME280;24125;47.482;8.770;2023-02-14T07:08:29;98076.56;;;5.40;63.61
36386;BME280;24125;47.482;8.770;2023-02-14T07:11:02;98083.47;;;5.41;63.64
36386;BME280;24125;47.482;8.770;2023-02-14T07:13:35;98077.13;;;5.42;63.34
36386;BME280;24125;47.482;8.770;2023-02-14T07:16:08;98077.69;;;5.44;63.61
36386;BME280;24125;47.482;8.770;2023-02-14T07:18:43;98072.13;;;5.46;63.66
36386;BME280;24125;47.482;8.770;2023-02-14T07:21:16;98076.63;;;5.45;63.52
36386;BME280;24125;47.482;8.770;2023-02-14T07:23:48;98076.63;;;5.45;63.33
36386;BME280;24125;47.482;8.770;2023-02-14T07:26:21;98072.44;;;5.49;63.55
36386;BME280;24125;47.482;8.770;2023-02-14T07:28:54;98081.19;;;5.50;63.46
36386;BME280;24125;47.482;8.770;2023-02-14T07:31:27;98071.97;;;5.52;63.36
36386;BME280;24125;47.482;8.770;2023-02-14T07:34:01;98070.13;;;5.53;63.61
36386;BME280;24125;47.482;8.770;2023-02-14T07:36:35;98070.41;;;5.56;63.41
36386;BME280;24125;47.482;8.770;2023-02-14T07:39:09;98075.72;;;5.56;63.05
36386;BME280;24125;47.482;8.770;2023-02-14T07:41:42;98075.22;;;5.59;63.45
36386;BME280;24125;47.482;8.770;2023-02-14T07:44:15;98078.44;;;5.61;63.25
36386;BME280;24125;47.482;8.770;2023-02-14T07:46:48;98070.50;;;5.61;62.93
36386;BME280;24125;47.482;8.770;2023-02-14T07:49:22;98069.19;;;5.64;62.56
36386;BME280;24125;47.482;8.770;2023-02-14T07:51:55;98068.38;;;5.63;62.38
36386;BME280;24125;47.482;8.770;2023-02-14T07:54:28;98065.19;;;5.61;62.70
36386;BME280;24125;47.482;8.770;2023-02-14T07:57:01;98066.47;;;5.59;62.50
36386;BME280;24125;47.482;8.770;2023-02-14T07:59:34;98067.28;;;5.59;62.61
36386;BME280;24125;47.482;8.770;2023-02-14T08:02:08;98058.78;;;5.57;62.88
36386;BME280;24125;47.482;8.770;2023-02-14T08:04:43;98062.22;;;5.58;62.82
36386;BME280;24125;47.482;8.770;2023-02-14T08:07:17;98054.50;;;5.56;62.85
36386;BME280;24125;47.482;8.770;2023-02-14T08:09:49;98056.94;;;5.58;62.69
36386;BME280;24125;47.482;8.770;2023-02-14T08:12:22;98064.63;;;5.59;62.75
36386;BME280;24125;47.482;8.770;2023-02-14T08:15:13;98064.13;;;5.62;63.03
36386;BME280;24125;47.482;8.770;2023-02-14T08:18:04;98056.72;;;5.64;63.19
36386;BME280;24125;47.482;8.770;2023-02-14T08:20:38;98051.50;;;5.69;63.34
36386;BME280;24125;47.482;8.770;2023-02-14T08:23:12;98051.56;;;5.75;62.99
36386;BME280;24125;47.482;8.770;2023-02-14T08:25:44;98043.63;;;5.80;62.77
36386;BME280;24125;47.482;8.770;2023-02-14T08:28:18;98047.97;;;5.86;63.21
36386;BME280;24125;47.482;8.770;2023-02-14T08:30:54;98044.34;;;5.92;63.21
36386;BME280;24125;47.482;8.770;2023-02-14T08:33:27;98048.63;;;5.98;62.94
36386;BME280;24125;47.482;8.770;2023-02-14T08:36:02;98043.97;;;6.05;62.59
36386;BME280;24125;47.482;8.770;2023-02-14T08:38:35;98045.84;;;6.10;62.84
36386;BME280;24125;47.482;8.770;2023-02-14T08:41:08;98046.69;;;6.15;62.66
36386;BME280;24125;47.482;8.770;2023-02-14T08:43:41;98039.84;;;6.19;62.87
36386;BME280;24125;47.482;8.770;2023-02-14T08:46:14;98047.84;;;6.24;62.08
36386;BME280;24125;47.482;8.770;2023-02-14T08:48:48;98041.78;;;6.29;61.85
36386;BME280;24125;47.482;8.770;2023-02-14T08:51:23;98048.41;;;6.31;61.39
36386;BME280;24125;47.482;8.770;2023-02-14T08:53:57;98048.72;;;6.35;61.70
36386;BME280;24125;47.482;8.770;2023-02-14T08:56:30;98043.97;;;6.37;61.43
36386;BME280;24125;47.482;8.770;2023-02-14T08:59:03;98045.34;;;6.39;61.96
36386;BME280;24125;47.482;8.770;2023-02-14T09:01:36;98054.63;;;6.42;61.94
36386;BME280;24125;47.482;8.770;2023-02-14T09:04:09;98047.22;;;6.44;61.56
36386;BME280;24125;47.482;8.770;2023-02-14T09:06:44;98043.53;;;6.50;61.55
36386;BME280;24125;47.482;8.770;2023-02-14T09:09:17;98045.72;;;6.53;62.14
36386;BME280;24125;47.482;8.770;2023-02-14T09:11:50;98040.41;;;6.58;61.84
36386;BME280;24125;47.482;8.770;2023-02-14T09:14:23;98036.47;;;6.61;62.12
36386;BME280;24125;47.482;8.770;2023-02-14T09:16:56;98039.94;;;6.66;61.63
36386;BME280;24125;47.482;8.770;2023-02-14T09:19:32;98039.50;;;6.74;61.98
36386;BME280;24125;47.482;8.770;2023-02-14T09:22:09;98032.91;;;6.82;61.66
36386;BME280;24125;47.482;8.770;2023-02-14T09:24:43;98035.59;;;6.87;61.69
36386;BME280;24125;47.482;8.770;2023-02-14T09:27:16;98031.09;;;6.93;61.64
36386;BME280;24125;47.482;8.770;2023-02-14T09:29:49;98029.06;;;7.00;61.25
36386;BME280;24125;47.482;8.770;2023-02-14T09:32:22;98025.34;;;7.06;61.23
36386;BME280;24125;47.482;8.770;2023-02-14T09:34:57;98029.63;;;7.12;61.81
36386;BME280;24125;47.482;8.770;2023-02-14T09:37:32;98035.25;;;7.20;61.68
36386;BME280;24125;47.482;8.770;2023-02-14T09:40:06;98025.47;;;7.26;61.12
36386;BME280;24125;47.482;8.770;2023-02-14T09:42:51;98026.28;;;7.37;60.87
36386;BME280;24125;47.482;8.770;2023-02-14T09:45:26;98026.34;;;7.42;61.31
36386;BME280;24125;47.482;8.770;2023-02-14T09:48:03;98022.38;;;7.49;60.60
36386;BME280;24125;47.482;8.770;2023-02-14T09:50:41;98024.78;;;7.56;60.97
36386;BME280;24125;47.482;8.770;2023-02-14T09:53:21;98022.94;;;7.62;60.65
36386;BME280;24125;47.482;8.770;2023-02-14T09:56:00;98023.22;;;7.65;60.66
36386;BME280;24125;47.482;8.770;2023-02-14T09:58:39;98015.00;;;7.72;60.85
36386;BME280;24125;47.482;8.770;2023-02-14T10:01:21;98010.75;;;7.76;60.63
36386;BME280;24125;47.482;8.770;2023-02-14T10:04:13;98017.94;;;7.80;60.72
36386;BME280;24125;47.482;8.770;2023-02-14T10:06:50;98010.25;;;7.84;60.40
36386;BME280;24125;47.482;8.770;2023-02-14T10:12:28;98014.25;;;7.91;60.12
36386;BME280;24125;47.482;8.770;2023-02-14T10:15:06;98004.69;;;7.95;60.52
36386;BME280;24125;47.482;8.770;2023-02-14T10:17:47;98003.59;;;7.96;60.56
36386;BME280;24125;47.482;8.770;2023-02-14T10:20:25;97990.59;;;8.00;60.79
36386;BME280;24125;47.482;8.770;2023-02-14T10:23:03;97996.44;;;8.07;61.03
36386;BME280;24125;47.482;8.770;2023-02-14T10:25:42;97989.00;;;8.14;60.81
36386;BME280;24125;47.482;8.770;2023-02-14T10:28:24;97995.66;;;8.22;59.84
36386;BME280;24125;47.482;8.770;2023-02-14T10:31:17;97986.38;;;8.29;60.30
36386;BME280;24125;47.482;8.770;2023-02-14T10:33:54;97990.91;;;8.34;60.36
36386;BME280;24125;47.482;8.770;2023-02-14T10:36:43;97987.19;;;8.40;59.47
36386;BME280;24125;47.482;8.770;2023-02-14T10:39:29;97986.38;;;8.45;59.56
36386;BME280;24125;47.482;8.770;2023-02-14T10:42:15;97984.28;;;8.47;59.25
36386;BME280;24125;47.482;8.770;2023-02-14T10:44:58;97980.78;;;8.51;59.79
36386;BME280;24125;47.482;8.770;2023-02-14T10:47:44;97975.75;;;8.55;59.33
36386;BME280;24125;47.482;8.770;2023-02-14T10:50:25;97971.72;;;8.57;59.29
36386;BME280;24125;47.482;8.770;2023-02-14T10:53:05;97973.88;;;8.60;59.28
36386;BME280;24125;47.482;8.770;2023-02-14T10:55:46;97964.28;;;8.64;59.35
36386;BME280;24125;47.482;8.770;2023-02-14T10:58:24;97960.53;;;8.65;59.07
36386;BME280;24125;47.482;8.770;2023-02-14T11:01:01;97960.00;;;8.68;59.98
36386;BME280;24125;47.482;8.770;2023-02-14T11:03:39;97953.34;;;8.71;60.08
36386;BME280;24125;47.482;8.770;2023-02-14T11:06:15;97949.88;;;8.76;59.78
36386;BME280;24125;47.482;8.770;2023-02-14T11:08:47;97944.53;;;8.81;59.71
36386;BME280;24125;47.482;8.770;2023-02-14T11:11:24;97939.47;;;8.89;59.77
36386;BME280;24125;47.482;8.770;2023-02-14T11:14:18;97940.75;;;8.97;59.50
36386;BME280;24125;47.482;8.770;2023-02-14T11:16:57;97940.72;;;9.02;59.63
36386;BME280;24125;47.482;8.770;2023-02-14T11:19:32;97931.66;;;9.08;59.82
36386;BME280;24125;47.482;8.770;2023-02-14T11:22:08;97930.31;;;9.16;59.37
36386;BME280;24125;47.482;8.770;2023-02-14T11:24:40;97930.81;;;9.23;59.45
36386;BME280;24125;47.482;8.770;2023-02-14T11:27:16;97923.31;;;9.30;59.17
36386;BME280;24125;47.482;8.770;2023-02-14T11:29:53;97921.94;;;9.37;58.47
36386;BME280;24125;47.482;8.770;2023-02-14T11:32:27;97917.34;;;9.43;58.66
36386;BME280;24125;47.482;8.770;2023-02-14T11:35:03;97909.63;;;9.46;58.68
36386;BME280;24125;47.482;8.770;2023-02-14T11:37:41;97902.69;;;9.51;58.61
36386;BME280;24125;47.482;8.770;2023-02-14T11:40:25;97901.84;;;9.55;58.31
36386;BME280;24125;47.482;8.770;2023-02-14T11:43:00;97895.97;;;9.58;58.23
36386;BME280;24125;47.482;8.770;2023-02-14T11:46:03;97888.16;;;9.67;58.41
36386;BME280;24125;47.482;8.770;2023-02-14T11:48:37;97889.19;;;9.71;58.76
36386;BME280;24125;47.482;8.770;2023-02-14T11:51:12;97888.59;;;9.79;58.51
36386;BME280;24125;47.482;8.770;2023-02-14T11:53:49;97886.97;;;9.83;58.44
36386;BME280;24125;47.482;8.770;2023-02-14T11:56:23;97876.25;;;9.88;58.03
36386;BME280;24125;47.482;8.770;2023-02-14T11:58:58;97880.50;;;9.94;58.26
36386;BME280;24125;47.482;8.770;2023-02-14T12:01:36;97886.06;;;9.98;58.35
36386;BME280;24125;47.482;8.770;2023-02-14T12:04:14;97886.81;;;10.03;58.23
36386;BME280;24125;47.482;8.770;2023-02-14T12:06:49;97879.03;;;10.07;58.11
36386;BME280;24125;47.482;8.770;2023-02-14T12:09:25;97874.75;;;10.11;57.88
36386;BME280;24125;47.482;8.770;2023-02-14T12:12:01;97867.25;;;10.13;58.30
36386;BME280;24125;47.482;8.770;2023-02-14T12:14:35;97865.88;;;10.15;58.20
36386;BME280;24125;47.482;8.770;2023-02-14T12:17:17;97866.16;;;10.19;57.42
36386;BME280;24125;47.482;8.770;2023-02-14T12:19:57;97860.03;;;10.18;57.40
36386;BME280;24125;47.482;8.770;2023-02-14T12:22:35;97853.09;;;10.12;57.11
36386;BME280;24125;47.482;8.770;2023-02-14T12:25:13;97853.16;;;10.07;56.82
36386;BME280;24125;47.482;8.770;2023-02-14T12:27:50;97844.97;;;9.99;56.70
36386;BME280;24125;47.482;8.770;2023-02-14T12:30:28;97852.25;;;9.88;56.57
36386;BME280;24125;47.482;8.770;2023-02-14T12:33:15;97836.38;;;9.73;56.15
36386;BME280;24125;47.482;8.770;2023-02-14T12:35:54;97840.50;;;9.55;56.68
36386;BME280;24125;47.482;8.770;2023-02-14T12:38:40;97837.16;;;9.39;56.54
36386;BME280;24125;47.482;8.770;2023-02-14T12:41:27;97828.22;;;9.20;56.88
36386;BME280;24125;47.482;8.770;2023-02-14T12:44:11;97822.44;;;9.03;57.73
36386;BME280;24125;47.482;8.770;2023-02-14T12:47:13;97822.00;;;8.86;57.85
36386;BME280;24125;47.482;8.770;2023-02-14T12:50:02;97818.63;;;8.70;58.44
36386;BME280;24125;47.482;8.770;2023-02-14T12:53:22;97812.81;;;8.53;58.68
36386;BME280;24125;47.482;8.770;2023-02-14T12:56:07;97809.94;;;8.39;58.63
36386;BME280;24125;47.482;8.770;2023-02-14T12:58:48;97808.63;;;8.26;58.80
36386;BME280;24125;47.482;8.770;2023-02-14T13:01:45;97800.66;;;8.16;59.37
36386;BME280;24125;47.482;8.770;2023-02-14T13:04:45;97789.22;;;8.06;60.03
36386;BME280;24125;47.482;8.770;2023-02-14T13:07:31;97784.47;;;7.97;60.19
36386;BME280;24125;47.482;8.770;2023-02-14T13:10:20;97783.94;;;7.90;60.61
36386;BME280;24125;47.482;8.770;2023-02-14T13:13:02;97781.84;;;7.82;60.90
36386;BME280;24125;47.482;8.770;2023-02-14T13:15:43;97784.50;;;7.77;60.53
36386;BME280;24125;47.482;8.770;2023-02-14T13:18:36;97780.25;;;7.71;61.01
36386;BME280;24125;47.482;8.770;2023-02-14T13:21:13;97773.09;;;7.67;61.08
36386;BME280;24125;47.482;8.770;2023-02-14T13:23:53;97770.16;;;7.63;61.63
36386;BME280;24125;47.482;8.770;2023-02-14T13:26:30;97768.84;;;7.61;61.72
36386;BME280;24125;47.482;8.770;2023-02-14T13:29:09;97776.03;;;7.60;61.76
36386;BME280;24125;47.482;8.770;2023-02-14T13:31:43;97767.25;;;7.54;61.81
36386;BME280;24125;47.482;8.770;2023-02-14T13:34:23;97765.38;;;7.55;62.14
36386;BME280;24125;47.482;8.770;2023-02-14T13:36:59;97770.16;;;7.53;62.07
36386;BME280;24125;47.482;8.770;2023-02-14T13:39:37;97771.25;;;7.52;62.00
36386;BME280;24125;47.482;8.770;2023-02-14T13:42:53;97767.00;;;7.51;62.65
36386;BME280;24125;47.482;8.770;2023-02-14T13:48:35;97770.16;;;7.48;62.57
36386;BME280;24125;47.482;8.770;2023-02-14T13:51:09;97761.41;;;7.47;62.85
36386;BME280;24125;47.482;8.770;2023-02-14T13:53:44;97762.47;;;7.46;62.26
36386;BME280;24125;47.482;8.770;2023-02-14T13:56:32;97758.75;;;7.47;63.36
36386;BME280;24125;47.482;8.770;2023-02-14T13:59:24;97760.34;;;7.48;63.21
36386;BME280;24125;47.482;8.770;2023-02-14T14:02:30;97755.28;;;7.47;62.77
36386;BME280;24125;47.482;8.770;2023-02-14T14:05:45;97762.72;;;7.50;63.50
36386;BME280;24125;47.482;8.770;2023-02-14T14:08:38;97755.31;;;7.52;63.35
36386;BME280;24125;47.482;8.770;2023-02-14T14:14:35;97754.47;;;7.56;63.64
36386;BME280;24125;47.482;8.770;2023-02-14T14:17:22;97747.84;;;7.59;63.82
36386;BME280;24125;47.482;8.770;2023-02-14T14:19:58;97746.25;;;7.58;63.46